createdAt,value
2023-03-29T00:01:40.053Z,2584.50
2023-03-29T00:04:06.961Z,2336.75
2023-03-29T00:06:34.241Z,2460.25
2023-03-29T00:09:01.342Z,3646.75
2023-03-29T00:11:28.533Z,3856.00
2023-03-29T00:13:55.543Z,3546.50
2023-03-29T00:16:24.115Z,3083.25
2023-03-29T00:18:51.515Z,3812.00
2023-03-29T00:21:18.422Z,3598.40
2023-03-29T00:23:45.224Z,3345.20
2023-03-29T00:26:12.315Z,3185.60
2023-03-29T00:28:39.150Z,2519.00
2023-03-29T00:31:08.567Z,3376.80
2023-03-29T00:33:37.084Z,3238.40
2023-03-29T00:36:04.923Z,3717.00
2023-03-29T00:38:32.267Z,3414.25
2023-03-29T00:40:59.723Z,3666.40
2023-03-29T00:43:27.424Z,3379.20
2023-03-29T00:45:54.374Z,3091.60
2023-03-29T00:48:25.109Z,3496.80
2023-03-29T00:50:57.624Z,3693.00
2023-03-29T00:53:28.242Z,3800.20
2023-03-29T00:56:01.376Z,2698.20
2023-03-29T00:58:33.904Z,3549.75
2023-03-29T01:01:05.156Z,2720.00
2023-03-29T01:03:36.901Z,3801.00
2023-03-29T01:06:08.301Z,3101.75
2023-03-29T01:08:40.407Z,2361.00
2023-03-29T01:11:12.488Z,1785.00
2023-03-29T01:13:44.175Z,2150.75
2023-03-29T01:16:13.938Z,2139.50
2023-03-29T01:18:40.920Z,1777.25
2023-03-29T01:21:20.928Z,1689.50
2023-03-29T01:24:03.845Z,2550.75
2023-03-29T01:26:40.510Z,1982.00
2023-03-29T01:29:14.162Z,1430.00
2023-03-29T01:31:45.818Z,2451.25
2023-03-29T01:34:19.858Z,503.25
2023-03-29T01:36:52.154Z,2625.25
2023-03-29T01:39:19.016Z,1798.75
2023-03-29T01:41:52.598Z,770.25
2023-03-29T01:44:29.648Z,491.80
2023-03-29T01:47:06.509Z,1248.75
2023-03-29T01:49:38.446Z,1323.25
2023-03-29T01:52:13.708Z,510.80
2023-03-29T01:54:43.996Z,2606.50
2023-03-29T01:57:12.180Z,2363.25
2023-03-29T01:59:44.272Z,3339.75
2023-03-29T02:02:15.993Z,3317.80
2023-03-29T02:04:47.660Z,3437.00
2023-03-29T02:07:17.507Z,3488.50
2023-03-29T02:09:46.976Z,3920.25
2023-03-29T02:12:16.982Z,1622.40
2023-03-29T02:14:45.851Z,2268.80
2023-03-29T02:17:16.578Z,2094.25
2023-03-29T02:19:44.648Z,1585.00
2023-03-29T02:22:13.485Z,3880.00
2023-03-29T02:24:42.205Z,2827.25
2023-03-29T02:27:09.310Z,2724.80
2023-03-29T02:29:36.482Z,2971.00
2023-03-29T02:32:13.033Z,3656.00
2023-03-29T02:34:46.701Z,3851.00
2023-03-29T02:37:18.014Z,3455.75
2023-03-29T02:39:48.314Z,3844.50
2023-03-29T02:42:16.890Z,3474.80
2023-03-29T02:44:46.687Z,3792.00
2023-03-29T02:47:19.780Z,3666.60
2023-03-29T02:49:47.009Z,3829.50
2023-03-29T02:52:17.576Z,3478.67
2023-03-29T02:54:48.717Z,3857.75
2023-03-29T02:57:15.665Z,3855.50
2023-03-29T02:59:42.755Z,3845.20
2023-03-29T03:02:10.109Z,3854.20
2023-03-29T03:04:38.489Z,3856.00
2023-03-29T03:07:05.342Z,3543.20
2023-03-29T03:09:32.703Z,3853.25
2023-03-29T03:11:59.572Z,3822.75
2023-03-29T03:14:26.249Z,3833.50
2023-03-29T03:16:53.076Z,3475.20
2023-03-29T03:19:19.967Z,3851.00
2023-03-29T03:21:48.091Z,3856.00
2023-03-29T03:24:14.953Z,3439.75
2023-03-29T03:26:41.984Z,3832.80
2023-03-29T03:29:09.085Z,3839.75
2023-03-29T03:31:35.827Z,3851.25
2023-03-29T03:34:03.072Z,3842.25
2023-03-29T03:36:30.242Z,3546.80
2023-03-29T03:38:58.604Z,3759.60
2023-03-29T03:41:25.743Z,3455.50
2023-03-29T03:43:52.774Z,3785.00
2023-03-29T03:46:19.967Z,3786.80
2023-03-29T03:48:47.329Z,3813.75
2023-03-29T03:51:14.315Z,3801.25
2023-03-29T03:53:41.439Z,3780.00
2023-03-29T03:56:10.524Z,3771.75
2023-03-29T03:58:37.899Z,3452.00
2023-03-29T04:01:06.083Z,3652.60
2023-03-29T04:03:33.000Z,3822.75
2023-03-29T04:06:01.482Z,3428.50
2023-03-29T04:08:28.328Z,3808.60
2023-03-29T04:10:56.972Z,3802.67
2023-03-29T04:13:26.046Z,3801.80
2023-03-29T04:15:53.237Z,3820.50
2023-03-29T04:18:20.974Z,3445.80
2023-03-29T04:20:48.393Z,3798.75
2023-03-29T04:23:15.844Z,3819.20
2023-03-29T04:25:42.669Z,3757.80
2023-03-29T04:28:10.022Z,3813.80
2023-03-29T04:30:38.781Z,3822.50
2023-03-29T04:33:05.597Z,3823.00
2023-03-29T04:35:32.532Z,3763.00
2023-03-29T04:37:59.452Z,3835.50
2023-03-29T04:40:26.403Z,3529.20
2023-03-29T04:42:53.308Z,3813.80
2023-03-29T04:45:20.037Z,3769.00
2023-03-29T04:47:48.207Z,3779.60
2023-03-29T04:50:15.090Z,3814.00
2023-03-29T04:52:42.139Z,3059.25
2023-03-29T04:55:09.660Z,3805.50
2023-03-29T04:57:36.799Z,3775.25
2023-03-29T05:00:04.425Z,3818.25
2023-03-29T05:02:31.546Z,2696.00
2023-03-29T05:04:59.879Z,3679.25
2023-03-29T05:07:26.923Z,3802.33
2023-03-29T05:09:54.007Z,3783.40
2023-03-29T05:12:21.027Z,3788.50
2023-03-29T05:14:48.107Z,3684.25
2023-03-29T05:17:14.902Z,3808.60
2023-03-29T05:19:41.701Z,3754.50
2023-03-29T05:22:10.309Z,3720.25
2023-03-29T05:24:37.110Z,3040.75
2023-03-29T05:27:04.363Z,3788.50
2023-03-29T05:29:31.478Z,3786.80
2023-03-29T05:31:58.474Z,3632.40
2023-03-29T05:34:25.424Z,3728.60
2023-03-29T05:36:52.294Z,3761.60
2023-03-29T05:39:20.724Z,3788.50
2023-03-29T05:41:47.513Z,3476.40
2023-03-29T05:44:17.680Z,3418.20
2023-03-29T05:46:44.792Z,3105.25
2023-03-29T05:49:11.948Z,3346.20
2023-03-29T05:51:38.774Z,2965.40
2023-03-29T05:54:05.886Z,3671.00
2023-03-29T05:56:34.057Z,3483.40
2023-03-29T05:59:00.881Z,2636.20
2023-03-29T06:01:27.769Z,1823.80
2023-03-29T06:03:54.973Z,2316.25
2023-03-29T06:06:22.104Z,3046.00
2023-03-29T06:08:49.002Z,2396.40
2023-03-29T06:11:19.452Z,2922.40
2023-03-29T06:13:47.691Z,2316.20
2023-03-29T06:16:14.516Z,3196.00
2023-03-29T06:18:41.575Z,3741.60
2023-03-29T06:21:08.669Z,2866.00
2023-03-29T06:23:35.838Z,2981.20
2023-03-29T06:26:02.749Z,2444.40
2023-03-29T06:28:29.635Z,2534.20
2023-03-29T06:30:58.321Z,963.75
2023-03-29T06:33:25.392Z,1953.80
2023-03-29T06:35:52.436Z,843.00
2023-03-29T06:38:25.293Z,121.25
2023-03-29T06:40:52.357Z,2996.00
2023-03-29T06:43:19.063Z,1458.75
2023-03-29T06:45:46.294Z,2257.20
2023-03-29T06:48:17.787Z,1500.40
2023-03-29T06:50:44.443Z,2807.25
2023-03-29T06:53:11.106Z,2842.00
2023-03-29T06:55:37.887Z,2216.50
2023-03-29T06:58:04.616Z,2809.40
2023-03-29T07:00:31.512Z,3002.25
2023-03-29T07:02:59.122Z,2514.00
2023-03-29T07:05:27.901Z,2622.20
2023-03-29T07:07:54.902Z,3048.50
2023-03-29T07:10:23.767Z,1761.20
2023-03-29T07:12:50.566Z,3299.50
2023-03-29T07:15:17.942Z,2745.00
2023-03-29T07:17:44.871Z,1679.80
2023-03-29T07:20:12.414Z,2063.75
2023-03-29T07:22:41.042Z,1284.40
2023-03-29T07:25:08.913Z,1101.20
2023-03-29T07:27:35.809Z,1897.00
2023-03-29T07:30:03.862Z,462.00
2023-03-29T07:32:31.827Z,1585.50
2023-03-29T07:34:58.711Z,883.80
2023-03-29T07:37:25.818Z,1088.40
2023-03-29T07:39:54.054Z,1377.60
2023-03-29T07:42:20.721Z,2138.75
2023-03-29T07:44:47.516Z,1466.20
2023-03-29T07:47:14.554Z,2241.40
2023-03-29T07:49:41.815Z,1692.40
2023-03-29T07:52:08.912Z,1882.00
2023-03-29T07:54:36.183Z,1165.20
2023-03-29T07:57:04.616Z,1148.50
2023-03-29T07:59:31.746Z,1907.00
2023-03-29T08:01:58.503Z,988.75
2023-03-29T08:04:25.440Z,704.50
2023-03-29T08:06:52.188Z,238.00
2023-03-29T08:09:19.137Z,1591.50
2023-03-29T08:11:46.947Z,71.00
2023-03-29T08:14:15.525Z,420.00
2023-03-29T08:16:42.756Z,1043.50
2023-03-29T08:19:11.918Z,865.25
2023-03-29T08:21:39.043Z,1132.00
2023-03-29T08:24:06.907Z,1001.60
2023-03-29T08:26:33.996Z,511.80
2023-03-29T08:29:01.162Z,359.80
2023-03-29T08:31:29.493Z,606.75
2023-03-29T08:33:56.306Z,279.60
2023-03-29T08:36:23.402Z,572.20
2023-03-29T08:38:50.185Z,1077.80
2023-03-29T08:41:35.574Z,553.40
2023-03-29T08:44:23.592Z,1356.40
2023-03-29T08:46:59.060Z,963.75
2023-03-29T08:49:27.059Z,1425.00
2023-03-29T08:51:58.663Z,430.00
2023-03-29T08:54:28.033Z,797.20
2023-03-29T08:57:01.638Z,378.40
2023-03-29T08:59:31.768Z,87.40
2023-03-29T09:02:10.010Z,924.80
2023-03-29T09:04:41.252Z,1851.00
2023-03-29T09:07:10.139Z,72.20
2023-03-29T09:09:37.883Z,1415.60
2023-03-29T09:12:17.624Z,1134.50
2023-03-29T09:14:58.879Z,461.20
2023-03-29T09:17:49.720Z,523.50
2023-03-29T09:20:27.185Z,793.00
2023-03-29T09:23:02.671Z,1048.00
2023-03-29T09:25:50.975Z,846.60
2023-03-29T09:28:27.950Z,1124.60
2023-03-29T09:31:00.215Z,716.20
2023-03-29T09:33:37.422Z,1136.40
2023-03-29T09:36:10.572Z,851.20
2023-03-29T09:38:42.038Z,1415.75
2023-03-29T09:41:19.891Z,1002.40
2023-03-29T09:43:49.804Z,1503.40
2023-03-29T09:46:22.763Z,438.80
2023-03-29T09:48:51.793Z,712.60
2023-03-29T09:51:22.964Z,579.00
2023-03-29T09:53:50.133Z,648.80
2023-03-29T09:56:17.529Z,1344.80
2023-03-29T09:58:45.618Z,478.40
2023-03-29T10:01:15.270Z,290.60
2023-03-29T10:03:43.146Z,1390.75
2023-03-29T10:06:12.435Z,1491.75
2023-03-29T10:08:44.784Z,791.00
2023-03-29T10:11:14.839Z,1391.20
2023-03-29T10:13:45.936Z,872.25
2023-03-29T10:16:20.107Z,872.50
2023-03-29T10:18:47.024Z,369.25
2023-03-29T10:21:16.535Z,1428.60
2023-03-29T10:23:43.999Z,1366.00
2023-03-29T10:26:20.962Z,1778.20
2023-03-29T10:28:48.028Z,1216.00
2023-03-29T10:31:18.678Z,980.25
2023-03-29T10:33:52.888Z,1579.00
2023-03-29T10:36:22.265Z,1507.50
2023-03-29T10:38:50.815Z,1708.20
2023-03-29T10:41:19.981Z,1253.00
2023-03-29T10:43:48.435Z,898.25
2023-03-29T10:46:21.868Z,1726.80
2023-03-29T10:48:50.595Z,791.80
2023-03-29T10:51:18.628Z,1453.60
2023-03-29T10:53:47.270Z,795.00
2023-03-29T10:56:32.487Z,2447.75
2023-03-29T10:59:13.843Z,629.50
2023-03-29T11:01:52.063Z,1776.75
2023-03-29T11:04:27.551Z,903.50
2023-03-29T11:07:09.786Z,2208.75
2023-03-29T11:09:49.408Z,1162.75
2023-03-29T11:12:23.119Z,1672.00
2023-03-29T11:15:03.526Z,1359.60
2023-03-29T11:17:48.560Z,353.75
2023-03-29T11:20:24.599Z,798.00
2023-03-29T11:23:00.241Z,1991.60
2023-03-29T11:25:49.623Z,1325.75
2023-03-29T11:28:23.866Z,990.75
2023-03-29T11:31:04.030Z,1506.75
2023-03-29T11:33:46.993Z,527.00
2023-03-29T11:36:20.326Z,1417.25
2023-03-29T11:38:58.218Z,1154.40
2023-03-29T11:41:30.596Z,928.60
2023-03-29T11:44:02.614Z,1845.00
2023-03-29T11:46:36.553Z,1738.50
2023-03-29T11:49:11.061Z,1848.75
2023-03-29T11:51:43.299Z,1825.60
2023-03-29T11:54:18.498Z,567.00
2023-03-29T11:56:48.185Z,1062.60
2023-03-29T11:59:22.986Z,2026.00
2023-03-29T12:01:55.380Z,1990.60
2023-03-29T12:04:29.178Z,1901.20
2023-03-29T12:07:07.170Z,371.40
2023-03-29T12:09:39.113Z,1999.50
2023-03-29T12:12:14.074Z,1395.25
2023-03-29T12:15:00.746Z,1218.60
2023-03-29T12:17:33.320Z,1123.60
2023-03-29T12:20:06.586Z,780.60
2023-03-29T12:22:34.129Z,2191.60
2023-03-29T12:25:05.004Z,2087.60
2023-03-29T12:27:39.357Z,631.20
2023-03-29T12:30:23.747Z,759.25
2023-03-29T12:33:09.035Z,1755.80
2023-03-29T12:35:46.465Z,1039.20
2023-03-29T12:38:19.631Z,287.40
2023-03-29T12:40:49.713Z,1181.00
2023-03-29T12:43:24.632Z,1375.80
2023-03-29T12:45:56.247Z,519.50
2023-03-29T12:48:25.925Z,506.50
2023-03-29T12:50:54.392Z,1100.20
2023-03-29T12:53:24.514Z,1479.60
2023-03-29T12:56:06.801Z,1000.50
2023-03-29T12:59:04.818Z,1133.20
2023-03-29T13:01:34.093Z,78.20
2023-03-29T13:04:19.762Z,135.00
2023-03-29T13:06:56.876Z,381.80
2023-03-29T13:09:25.850Z,401.00
2023-03-29T13:11:54.653Z,386.20
2023-03-29T13:14:27.990Z,1979.50
2023-03-29T13:17:15.608Z,1145.00
2023-03-29T13:20:11.501Z,878.00
2023-03-29T13:22:50.578Z,569.00
2023-03-29T13:25:35.140Z,675.40
2023-03-29T13:28:08.951Z,405.25
2023-03-29T13:30:50.211Z,1434.75
2023-03-29T13:33:55.571Z,207.40
2023-03-29T13:36:34.243Z,846.00
2023-03-29T13:39:03.913Z,411.00
2023-03-29T13:41:43.444Z,1074.00
2023-03-29T13:44:24.809Z,827.00
2023-03-29T13:47:04.346Z,76.00
2023-03-29T13:49:33.562Z,679.80
2023-03-29T13:52:13.700Z,925.75
2023-03-29T13:54:44.536Z,611.60
2023-03-29T13:57:16.785Z,2191.80
2023-03-29T13:59:52.470Z,978.20
2023-03-29T14:02:32.593Z,799.40
2023-03-29T14:05:01.731Z,1096.00
2023-03-29T14:07:33.655Z,1821.80
2023-03-29T14:10:01.444Z,435.40
2023-03-29T14:12:38.854Z,1022.75
2023-03-29T14:15:08.338Z,1633.40
2023-03-29T14:17:37.626Z,1402.25
2023-03-29T14:20:07.043Z,328.25
2023-03-29T14:22:34.090Z,416.25
2023-03-29T14:25:06.136Z,151.60
2023-03-29T14:27:36.240Z,404.80
2023-03-29T14:30:18.997Z,741.80
2023-03-29T14:32:48.777Z,72.75
2023-03-29T14:35:15.800Z,676.00
2023-03-29T14:37:43.178Z,1344.00
2023-03-29T14:40:17.008Z,213.60
2023-03-29T14:42:43.753Z,2079.75
2023-03-29T14:45:13.703Z,446.40
2023-03-29T14:47:41.485Z,1863.40
2023-03-29T14:50:18.516Z,2438.75
2023-03-29T14:52:47.909Z,2261.40
2023-03-29T14:55:16.814Z,2151.40
2023-03-29T14:57:43.862Z,1731.00
2023-03-29T15:00:24.839Z,1872.20
2023-03-29T15:02:55.764Z,2638.50
2023-03-29T15:05:32.738Z,2057.00
2023-03-29T15:08:01.391Z,1920.00
2023-03-29T15:10:31.698Z,2136.40
2023-03-29T15:12:58.945Z,1604.00
2023-03-29T15:15:25.897Z,2753.60
2023-03-29T15:17:52.961Z,3011.40
2023-03-29T15:20:24.721Z,2593.60
2023-03-29T15:23:01.478Z,3476.20
2023-03-29T15:25:33.331Z,2478.00
2023-03-29T15:28:01.675Z,3269.40
2023-03-29T15:30:33.361Z,3466.40
2023-03-29T15:33:20.191Z,3360.60
2023-03-29T15:35:50.600Z,3481.75
2023-03-29T15:38:23.370Z,3185.00
2023-03-29T15:40:54.571Z,2710.40
2023-03-29T15:43:21.730Z,2782.40
2023-03-29T15:45:48.527Z,3527.50
2023-03-29T15:48:18.289Z,3527.40
2023-03-29T15:50:45.430Z,3499.80
2023-03-29T15:53:15.556Z,3515.40
2023-03-29T15:55:47.561Z,3487.00
2023-03-29T15:58:15.834Z,3456.80
2023-03-29T16:00:46.655Z,2973.60
2023-03-29T16:03:14.915Z,3292.40
2023-03-29T16:05:42.841Z,3492.60
2023-03-29T16:08:11.167Z,3397.00
2023-03-29T16:10:38.053Z,2955.20
2023-03-29T16:13:06.764Z,3132.20
2023-03-29T16:15:34.426Z,3500.00
2023-03-29T16:18:01.328Z,3530.75
2023-03-29T16:20:28.239Z,3496.80
2023-03-29T16:22:56.022Z,3503.80
2023-03-29T16:25:23.477Z,3533.00
2023-03-29T16:27:51.548Z,3487.00
2023-03-29T16:30:20.454Z,3521.40
2023-03-29T16:32:47.126Z,3539.40
2023-03-29T16:35:26.955Z,3526.00
2023-03-29T16:37:53.785Z,3259.40
2023-03-29T16:40:20.888Z,3303.20
2023-03-29T16:42:48.117Z,3414.40
2023-03-29T16:45:15.819Z,3375.20
2023-03-29T16:47:44.805Z,2956.60
2023-03-29T16:50:12.640Z,2782.25
2023-03-29T16:52:40.709Z,3027.00
2023-03-29T16:55:08.977Z,3142.40
2023-03-29T16:57:36.110Z,2965.00
2023-03-29T17:00:04.099Z,3474.80
2023-03-29T17:02:30.960Z,2747.00
2023-03-29T17:04:59.288Z,2147.40
2023-03-29T17:07:26.004Z,854.80
2023-03-29T17:09:53.013Z,3397.80
2023-03-29T17:12:20.099Z,2630.60
2023-03-29T17:14:49.481Z,2627.80
2023-03-29T17:17:16.284Z,1624.40
2023-03-29T17:19:43.278Z,1319.80
2023-03-29T17:22:11.712Z,2309.40
2023-03-29T17:24:38.759Z,1771.20
2023-03-29T17:27:05.648Z,3230.60
2023-03-29T17:29:32.819Z,1558.20
2023-03-29T17:31:59.878Z,2304.60
2023-03-29T17:34:26.579Z,2762.80
2023-03-29T17:36:53.332Z,2400.00
2023-03-29T17:39:21.558Z,2738.80
2023-03-29T17:41:48.335Z,3159.20
2023-03-29T17:44:15.252Z,2857.60
2023-03-29T17:46:41.957Z,2948.80
2023-03-29T17:49:08.761Z,3348.20
2023-03-29T17:51:35.642Z,1806.40
2023-03-29T17:54:02.808Z,894.60
2023-03-29T17:56:31.433Z,1764.00
2023-03-29T17:58:58.336Z,1661.60
2023-03-29T18:01:25.658Z,1321.80
2023-03-29T18:03:52.553Z,1333.40
2023-03-29T18:06:19.455Z,848.75
2023-03-29T18:08:47.072Z,854.75
2023-03-29T18:11:16.003Z,72.75
2023-03-29T18:13:44.619Z,281.60
2023-03-29T18:16:11.927Z,78.75
2023-03-29T18:18:39.063Z,423.60
2023-03-29T18:21:06.413Z,91.00
2023-03-29T18:23:33.357Z,152.50
2023-03-29T18:26:00.810Z,959.50
2023-03-29T18:28:27.961Z,793.50
2023-03-29T18:30:56.339Z,1546.25
2023-03-29T18:33:23.902Z,1303.00
2023-03-29T18:35:51.157Z,958.25
2023-03-29T18:38:19.255Z,2571.50
2023-03-29T18:40:46.886Z,1508.60
2023-03-29T18:43:14.247Z,1999.50
2023-03-29T18:45:41.633Z,2841.20
2023-03-29T18:48:10.176Z,215.00
2023-03-29T18:50:37.715Z,685.40
2023-03-29T18:53:04.977Z,614.80
2023-03-29T18:55:32.129Z,2589.00
2023-03-29T18:57:58.935Z,1830.60
2023-03-29T19:00:26.149Z,2905.60
2023-03-29T19:02:53.167Z,1823.80
2023-03-29T19:05:21.630Z,1894.60
2023-03-29T19:07:48.448Z,1832.20
2023-03-29T19:10:15.204Z,1715.40
2023-03-29T19:12:42.036Z,1516.40
2023-03-29T19:15:11.206Z,2464.40
2023-03-29T19:17:38.104Z,2998.80
2023-03-29T19:20:06.176Z,1901.60
2023-03-29T19:22:34.610Z,2565.60
2023-03-29T19:25:01.366Z,2385.40
2023-03-29T19:27:28.775Z,2246.80
2023-03-29T19:29:55.482Z,1898.20
2023-03-29T19:32:22.187Z,1768.00
2023-03-29T19:34:49.002Z,2044.80
2023-03-29T19:37:15.952Z,3216.20
2023-03-29T19:39:44.207Z,1601.00
2023-03-29T19:42:11.445Z,3056.80
2023-03-29T19:44:38.237Z,2869.20
2023-03-29T19:47:05.392Z,3024.40
2023-03-29T19:49:32.214Z,1924.20
2023-03-29T19:51:58.986Z,2907.00
2023-03-29T19:54:26.337Z,2864.80
2023-03-29T19:56:54.730Z,2242.40
2023-03-29T19:59:21.510Z,2817.80
2023-03-29T20:01:48.399Z,3233.00
2023-03-29T20:04:15.269Z,3160.20
2023-03-29T20:06:42.199Z,3563.00
2023-03-29T20:09:08.977Z,3291.00
2023-03-29T20:11:36.104Z,3262.60
2023-03-29T20:14:05.136Z,3532.20
2023-03-29T20:16:32.328Z,3038.50
2023-03-29T20:18:59.213Z,2696.25
2023-03-29T20:21:25.888Z,3575.75
2023-03-29T20:23:52.678Z,3523.00
2023-03-29T20:26:19.783Z,2901.60
2023-03-29T20:28:46.861Z,3273.60
2023-03-29T20:31:15.037Z,3599.60
2023-03-29T20:33:41.878Z,3614.50
2023-03-29T20:36:09.211Z,3622.60
2023-03-29T20:38:36.102Z,3625.80
2023-03-29T20:41:04.027Z,3625.80
2023-03-29T20:43:31.559Z,3399.80
2023-03-29T20:45:58.658Z,3292.80
2023-03-29T20:48:27.188Z,3657.00
2023-03-29T20:50:53.988Z,3625.75
2023-03-29T20:53:20.870Z,3637.75
2023-03-29T20:55:48.142Z,3620.00
2023-03-29T20:58:15.316Z,3250.00
2023-03-29T21:00:42.051Z,3661.80
2023-03-29T21:03:09.055Z,3285.20
2023-03-29T21:05:37.591Z,3604.20
2023-03-29T21:08:04.687Z,3633.80
2023-03-29T21:10:31.831Z,3673.00
2023-03-29T21:12:58.970Z,2788.00
2023-03-29T21:15:26.428Z,3638.60
2023-03-29T21:17:53.561Z,3681.00
2023-03-29T21:20:20.552Z,3626.00
2023-03-29T21:22:49.598Z,3693.80
2023-03-29T21:25:16.712Z,3665.00
2023-03-29T21:27:43.551Z,3643.20
2023-03-29T21:30:11.131Z,3199.25
2023-03-29T21:32:39.730Z,3663.25
2023-03-29T21:35:07.681Z,3687.00
2023-03-29T21:37:34.666Z,3670.33
2023-03-29T21:40:03.894Z,3663.25
2023-03-29T21:42:30.744Z,3677.80
2023-03-29T21:44:57.444Z,3649.00
2023-03-29T21:47:24.769Z,3651.25
2023-03-29T21:49:51.602Z,3687.40
2023-03-29T21:52:18.722Z,3647.40
2023-03-29T21:54:45.550Z,3649.67
2023-03-29T21:57:14.289Z,3697.00
2023-03-29T21:59:40.990Z,3693.00
2023-03-29T22:02:08.163Z,3701.00
2023-03-29T22:05:12.636Z,3695.00
2023-03-29T22:07:39.475Z,3661.00
2023-03-29T22:10:07.212Z,3687.00
2023-03-29T22:12:35.702Z,3663.00
2023-03-29T22:15:02.876Z,3687.00
2023-03-29T22:17:30.038Z,3693.80
2023-03-29T22:19:57.160Z,3670.33
2023-03-29T22:22:25.481Z,3237.75
2023-03-29T22:24:54.764Z,3687.00
2023-03-29T22:27:22.146Z,3671.40
2023-03-29T22:29:50.834Z,3687.00
2023-03-29T22:32:18.059Z,3671.40
2023-03-29T22:34:45.325Z,3673.00
2023-03-29T22:37:12.128Z,3333.50
2023-03-29T22:39:38.967Z,3689.00
2023-03-29T22:42:05.934Z,3687.00
2023-03-29T22:44:32.758Z,3689.00
2023-03-29T22:47:01.247Z,3657.00
2023-03-29T22:49:28.372Z,3643.20
2023-03-29T22:51:55.162Z,3304.50
2023-03-29T22:54:22.035Z,3685.80
2023-03-29T22:56:48.936Z,3578.00
2023-03-29T22:59:16.127Z,3687.25
2023-03-29T23:01:43.033Z,3708.00
2023-03-29T23:04:11.800Z,3689.00
2023-03-29T23:06:38.572Z,3599.20
2023-03-29T23:09:05.378Z,3453.80
2023-03-29T23:11:32.099Z,3681.00
2023-03-29T23:13:59.006Z,3429.80
2023-03-29T23:16:26.594Z,3705.20
2023-03-29T23:18:53.508Z,3347.60
2023-03-29T23:21:22.085Z,2415.20
2023-03-29T23:23:48.892Z,3722.00
2023-03-29T23:26:15.914Z,3623.50
2023-03-29T23:28:42.895Z,3507.50
2023-03-29T23:31:11.926Z,3701.00
2023-03-29T23:33:41.027Z,3721.25
2023-03-29T23:36:10.236Z,3409.80
2023-03-29T23:38:39.272Z,3230.60
2023-03-29T23:41:07.803Z,3746.33
2023-03-29T23:43:36.804Z,3660.40
2023-03-29T23:46:06.298Z,3721.33
2023-03-29T23:49:10.762Z,3406.20
2023-03-29T23:51:37.574Z,3350.80
2023-03-29T23:54:06.247Z,3370.00
2023-03-29T23:56:33.137Z,3327.67
2023-03-29T23:59:00.221Z,3721.33
